Air Navigation Services of Czech Republic
Airport: LKBC Updated:  23.05.2024 18:03:39  UTC
 METAR LKBC 23.05. 18:00 RRA
METAR LKBC 231800Z AUTO VRB02KT //// // FEW065 BKN100 19/11 Q1015=